createdAt,value
2022-09-22T00:01:09.723Z,7.242126
2022-09-22T00:04:34.913Z,7.242126
2022-09-22T00:08:00.163Z,7.201843
2022-09-22T00:11:25.394Z,7.211914
2022-09-22T00:14:50.589Z,7.171631
2022-09-22T00:18:15.838Z,7.171631
2022-09-22T00:21:41.089Z,7.171631
2022-09-22T00:25:06.310Z,7.16156
2022-09-22T00:28:31.559Z,7.151489
2022-09-22T00:31:56.831Z,7.121277
2022-09-22T00:35:21.978Z,7.151489
2022-09-22T00:38:47.217Z,7.101135
2022-09-22T00:42:12.432Z,7.050781
2022-09-22T00:45:37.684Z,7.070923
2022-09-22T00:49:02.861Z,6.980286
2022-09-22T00:52:28.128Z,6.919861
2022-09-22T00:55:53.342Z,6.90979
2022-09-22T00:59:18.582Z,6.90979
2022-09-22T01:02:43.848Z,6.849365
2022-09-22T01:06:09.066Z,6.869507
2022-09-22T01:09:34.308Z,6.78894
2022-09-22T01:12:59.533Z,6.768799
2022-09-22T01:16:24.776Z,6.78894
2022-09-22T01:19:50.000Z,6.758728
2022-09-22T01:23:15.199Z,6.768799
2022-09-22T01:26:40.421Z,6.758728
2022-09-22T01:30:05.655Z,6.758728
2022-09-22T01:33:30.897Z,6.738586
2022-09-22T01:36:56.135Z,6.768799
2022-09-22T01:40:21.358Z,6.768799
2022-09-22T01:43:46.553Z,6.708374
2022-09-22T01:47:11.810Z,6.728516
2022-09-22T01:50:37.025Z,6.708374
2022-09-22T01:54:02.279Z,6.668091
2022-09-22T01:57:27.495Z,6.698303
2022-09-22T02:00:52.747Z,6.728516
2022-09-22T02:04:17.956Z,6.728516
2022-09-22T02:07:43.939Z,6.758728
2022-09-22T02:11:09.151Z,6.738586
2022-09-22T02:14:34.343Z,6.728516
2022-09-22T02:17:59.567Z,6.728516
2022-09-22T02:21:24.796Z,6.698303
2022-09-22T02:24:50.008Z,6.65802
2022-09-22T02:28:15.254Z,6.637878
2022-09-22T02:31:40.498Z,6.607666
2022-09-22T02:35:05.673Z,6.587524
2022-09-22T02:38:30.889Z,6.607666
2022-09-22T02:41:56.110Z,6.617737
2022-09-22T02:45:21.360Z,6.587524
2022-09-22T02:48:46.550Z,6.577454
2022-09-22T02:52:11.755Z,6.587524
2022-09-22T02:55:37.007Z,6.637878
2022-09-22T02:59:02.223Z,6.607666
2022-09-22T03:02:27.479Z,6.65802
2022-09-22T03:05:52.671Z,6.688232
2022-09-22T03:09:17.885Z,6.698303
2022-09-22T03:12:56.948Z,6.708374
2022-09-22T03:16:08.382Z,6.738586
2022-09-22T03:19:33.596Z,6.738586
2022-09-22T03:22:58.806Z,6.768799
2022-09-22T03:26:24.027Z,6.768799
2022-09-22T03:29:49.250Z,6.758728
2022-09-22T03:33:14.432Z,6.758728
2022-09-22T03:36:39.773Z,6.758728
2022-09-22T03:40:06.442Z,6.758728
2022-09-22T03:43:31.887Z,6.708374
2022-09-22T03:46:57.347Z,6.587524
2022-09-22T03:50:22.964Z,6.617737
2022-09-22T03:53:48.413Z,6.688232
2022-09-22T03:57:13.940Z,6.738586
2022-09-22T04:00:39.561Z,6.768799
2022-09-22T04:04:05.008Z,6.799011
2022-09-22T04:07:30.700Z,6.799011
2022-09-22T04:10:56.331Z,6.799011
2022-09-22T04:14:21.778Z,6.809082
2022-09-22T04:17:47.456Z,6.849365
2022-09-22T04:21:12.967Z,6.839294
2022-09-22T04:24:38.447Z,6.809082
2022-09-22T04:28:05.646Z,6.809082
2022-09-22T04:31:29.414Z,6.839294
2022-09-22T04:34:54.951Z,6.839294
2022-09-22T04:38:20.424Z,6.849365
2022-09-22T04:41:45.953Z,6.869507
2022-09-22T04:45:11.507Z,6.849365
2022-09-22T04:48:37.004Z,6.809082
2022-09-22T04:52:02.459Z,6.78894
2022-09-22T04:55:27.900Z,6.799011
2022-09-22T04:58:53.375Z,6.809082
2022-09-22T05:02:18.863Z,6.849365
2022-09-22T05:05:44.245Z,6.849365
2022-09-22T05:09:09.703Z,6.839294
2022-09-22T05:12:35.166Z,6.849365
2022-09-22T05:16:00.641Z,6.849365
2022-09-22T05:19:26.109Z,6.849365
2022-09-22T05:22:51.594Z,6.839294
2022-09-22T05:26:17.029Z,6.849365
2022-09-22T05:29:42.480Z,6.879578
2022-09-22T05:33:07.932Z,6.919861
2022-09-22T05:36:33.413Z,6.980286
2022-09-22T05:39:58.875Z,7.091064
2022-09-22T05:43:24.359Z,7.171631
2022-09-22T05:46:49.802Z,7.272339
2022-09-22T05:50:15.300Z,7.342834
2022-09-22T05:53:40.816Z,7.423401
2022-09-22T05:57:06.229Z,7.423401
2022-09-22T06:00:31.644Z,7.423401
2022-09-22T06:03:57.124Z,7.433472
2022-09-22T06:07:22.586Z,7.503967
2022-09-22T06:10:48.072Z,7.584534
2022-09-22T06:14:13.519Z,7.614746
2022-09-22T06:17:38.962Z,7.634888
2022-09-22T06:21:04.415Z,7.6651
2022-09-22T06:24:29.918Z,7.685242
2022-09-22T06:27:55.384Z,7.705383
2022-09-22T06:31:20.862Z,7.735596
2022-09-22T06:34:46.298Z,7.856445
2022-09-22T06:38:11.737Z,7.926941
2022-09-22T06:41:37.185Z,8.098145
2022-09-22T06:45:02.647Z,8.218994
2022-09-22T06:48:28.043Z,8.299561
2022-09-22T06:51:53.492Z,8.450623
2022-09-22T06:55:18.926Z,8.581543
2022-09-22T06:59:05.840Z,8.762817
2022-09-22T07:02:10.036Z,8.913879
2022-09-22T07:05:35.374Z,9.075012
2022-09-22T07:09:00.864Z,9.226074
2022-09-22T07:12:26.343Z,9.377136
2022-09-22T07:15:51.790Z,9.568481
2022-09-22T07:19:17.285Z,9.649048
2022-09-22T07:22:43.734Z,9.709473
2022-09-22T07:26:09.171Z,9.790039
2022-09-22T07:29:34.664Z,10.011597
2022-09-22T07:33:00.131Z,10.112305
2022-09-22T07:36:25.698Z,10.263367
2022-09-22T07:39:51.051Z,10.343933
2022-09-22T07:43:16.499Z,10.454712
2022-09-22T07:46:42.008Z,10.505066
2022-09-22T07:50:07.400Z,10.635986
2022-09-22T07:53:32.881Z,10.656128
2022-09-22T07:56:58.875Z,10.585632
2022-09-22T08:00:23.797Z,10.625916
2022-09-22T08:03:49.232Z,10.706482
2022-09-22T08:07:14.690Z,10.857544
2022-09-22T08:10:40.153Z,10.877686
2022-09-22T08:14:05.593Z,10.907898
2022-09-22T08:17:31.062Z,11.038818
2022-09-22T08:20:56.519Z,11.18988
2022-09-22T08:24:22.450Z,11.270447
2022-09-22T08:27:47.537Z,11.290588
2022-09-22T08:31:12.939Z,11.391296
2022-09-22T08:34:38.393Z,11.44165
2022-09-22T08:38:03.851Z,11.471863
2022-09-22T08:41:29.342Z,11.492004
2022-09-22T08:44:54.745Z,11.552429
2022-09-22T08:48:20.221Z,11.572571
2022-09-22T08:51:45.667Z,11.461792
2022-09-22T08:55:11.124Z,11.542358
2022-09-22T08:58:36.572Z,11.522217
2022-09-22T09:02:02.191Z,11.622925
2022-09-22T09:05:27.513Z,11.703491
2022-09-22T09:08:52.963Z,11.794128
2022-09-22T09:12:18.443Z,11.753845
2022-09-22T09:15:43.942Z,11.723633
2022-09-22T09:19:09.389Z,11.834412
2022-09-22T09:22:34.854Z,12.005615
2022-09-22T09:26:00.340Z,12.045898
2022-09-22T09:29:25.770Z,12.18689
2022-09-22T09:32:51.231Z,12.287598
2022-09-22T09:39:42.154Z,12.408447
2022-09-22T09:43:07.619Z,12.277527
2022-09-22T09:46:33.144Z,12.227173
2022-09-22T09:49:58.543Z,12.156677
2022-09-22T09:53:24.024Z,12.156677
2022-09-22T09:56:49.445Z,12.237244
2022-09-22T10:00:15.073Z,12.378235
2022-09-22T10:03:41.677Z,12.458801
2022-09-22T10:07:07.190Z,12.7005
2022-09-22T10:10:32.684Z,12.962341
2022-09-22T10:13:58.086Z,13.052979
2022-09-22T10:17:23.806Z,13.143616
2022-09-22T10:20:49.324Z,13.284607
2022-09-22T10:24:14.905Z,13.475952
2022-09-22T10:27:40.406Z,13.627014
2022-09-22T10:31:05.912Z,13.667297
2022-09-22T10:34:31.471Z,13.69751
2022-09-22T10:37:56.850Z,13.616943
2022-09-22T10:41:22.360Z,13.707581
2022-09-22T10:44:48.942Z,13.788147
2022-09-22T10:48:15.009Z,13.868713
2022-09-22T10:51:40.993Z,13.999634
2022-09-22T10:55:06.518Z,14.060059
2022-09-22T10:58:31.996Z,14.090271
2022-09-22T11:01:57.589Z,14.241333
2022-09-22T11:05:22.947Z,14.372253
2022-09-22T11:08:48.464Z,14.503174
2022-09-22T11:12:13.913Z,14.734802
2022-09-22T11:15:39.437Z,14.855652
2022-09-22T11:19:04.982Z,14.694519
2022-09-22T11:22:30.377Z,14.513245
2022-09-22T11:25:55.927Z,14.422607
2022-09-22T11:29:21.449Z,14.211121
2022-09-22T11:32:47.035Z,14.060059
2022-09-22T11:36:12.573Z,13.878784
2022-09-22T11:39:38.245Z,13.727722
2022-09-22T11:43:04.320Z,13.778076
2022-09-22T11:46:29.245Z,13.727722
2022-09-22T11:49:54.752Z,13.616943
2022-09-22T11:53:20.248Z,13.486023
2022-09-22T11:56:45.693Z,13.516235
2022-09-22T12:00:11.158Z,13.616943
2022-09-22T12:03:36.751Z,13.727722
2022-09-22T12:07:02.136Z,13.888855
2022-09-22T12:10:27.635Z,14.039917
2022-09-22T12:13:53.286Z,14.100342
2022-09-22T12:17:19.995Z,14.180908
2022-09-22T12:20:44.273Z,14.20105
2022-09-22T12:24:09.819Z,14.271545
2022-09-22T12:27:35.353Z,14.352112
2022-09-22T12:31:00.943Z,14.45282
2022-09-22T12:34:26.345Z,14.45282
2022-09-22T12:37:51.815Z,14.392395
2022-09-22T12:41:17.244Z,14.029846
2022-09-22T12:44:42.895Z,14.070129
2022-09-22T12:48:10.351Z,13.94928
2022-09-22T12:51:35.322Z,13.888855
2022-09-22T12:55:01.154Z,13.808289
2022-09-22T12:58:26.732Z,13.747864
2022-09-22T13:01:54.626Z,13.69751
2022-09-22T13:05:20.252Z,13.657227
2022-09-22T13:08:46.728Z,13.616943
2022-09-22T13:12:12.292Z,13.506165
2022-09-22T13:15:37.864Z,13.546448
2022-09-22T13:19:03.371Z,13.546448
2022-09-22T13:22:28.895Z,13.546448
2022-09-22T13:25:54.379Z,13.596802
2022-09-22T13:29:19.877Z,13.657227
2022-09-22T13:32:45.366Z,13.667297
2022-09-22T13:36:10.950Z,13.637085
2022-09-22T13:39:36.377Z,13.516235
2022-09-22T13:43:01.881Z,13.616943
2022-09-22T13:46:27.343Z,13.687439
2022-09-22T13:49:52.826Z,13.747864
2022-09-22T13:53:18.359Z,13.707581
2022-09-22T13:56:43.814Z,13.727722
2022-09-22T14:00:09.609Z,13.707581
2022-09-22T14:03:35.107Z,13.778076
2022-09-22T14:07:00.541Z,13.768005
2022-09-22T14:10:26.073Z,13.747864
2022-09-22T14:13:51.578Z,13.778076
2022-09-22T14:17:17.179Z,13.727722
2022-09-22T14:20:42.683Z,13.596802
2022-09-22T14:24:08.185Z,13.44574
2022-09-22T14:27:33.660Z,13.486023
2022-09-22T15:05:22.731Z,13.153687
2022-09-22T15:08:54.075Z,13.153687
2022-09-22T15:12:19.425Z,13.103333
2022-09-22T15:15:44.816Z,13.113403
2022-09-22T15:19:10.225Z,13.083191
2022-09-22T15:22:35.590Z,13.103333
2022-09-22T15:26:00.883Z,13.153687
2022-09-22T15:29:26.225Z,13.052979
2022-09-22T15:32:51.585Z,13.07312
2022-09-22T15:36:16.908Z,12.972412
2022-09-22T15:39:42.243Z,12.891846
2022-09-22T15:43:12.962Z,12.932129
2022-09-22T15:46:33.055Z,12.962341
2022-09-22T15:49:58.421Z,12.962341
2022-09-22T15:53:23.707Z,12.952271
2022-09-22T15:56:49.045Z,12.932129
2022-09-22T16:00:14.370Z,12.851562
2022-09-22T16:03:41.379Z,12.770996
2022-09-22T16:07:05.014Z,12.710571
2022-09-22T16:10:30.348Z,12.710571
2022-09-22T16:13:55.705Z,12.720642
2022-09-22T16:17:21.008Z,12.670288
2022-09-22T16:20:46.332Z,12.56958
2022-09-22T16:24:11.720Z,12.539368
2022-09-22T16:27:36.963Z,12.44873
2022-09-22T16:31:02.323Z,12.388306
2022-09-22T16:34:27.729Z,12.348022
2022-09-22T16:37:53.274Z,12.348022
2022-09-22T16:41:18.793Z,12.348022
2022-09-22T16:44:44.302Z,12.31781
2022-09-22T16:48:09.809Z,12.307739
2022-09-22T16:51:35.342Z,12.287598
2022-09-22T16:55:00.866Z,12.227173
2022-09-22T16:58:26.384Z,12.086182
2022-09-22T17:01:51.967Z,11.955261
2022-09-22T17:05:17.487Z,11.763916
2022-09-22T17:08:42.931Z,11.542358
2022-09-22T17:12:08.447Z,11.330872
2022-09-22T17:15:33.996Z,11.139526
2022-09-22T17:18:59.508Z,11.018677
2022-09-22T17:22:25.066Z,10.877686
2022-09-22T17:25:50.561Z,10.726624
2022-09-22T17:29:16.096Z,10.595703
2022-09-22T17:32:41.595Z,10.404358
2022-09-22T20:16:56.485Z,7.91687
2022-09-22T20:20:21.787Z,7.856445
2022-09-22T20:23:47.121Z,7.846375
2022-09-22T20:27:12.452Z,7.796021
2022-09-22T20:30:37.834Z,7.796021
2022-09-22T20:34:03.167Z,7.715454
2022-09-22T20:37:28.494Z,7.644958
2022-09-22T20:40:53.809Z,7.614746
2022-09-22T20:44:19.134Z,7.644958
2022-09-22T20:47:44.442Z,7.6651
2022-09-22T20:51:09.772Z,7.634888
2022-09-22T20:54:35.081Z,7.644958
2022-09-22T20:58:00.397Z,7.675171
2022-09-22T21:01:25.775Z,7.644958
2022-09-22T21:04:51.073Z,7.634888
2022-09-22T21:08:16.486Z,7.584534
2022-09-22T21:11:41.816Z,7.554321
2022-09-22T21:15:07.160Z,7.483826
2022-09-22T21:18:32.525Z,7.463684
2022-09-22T21:21:57.867Z,7.433472
2022-09-22T21:25:23.362Z,7.403259
2022-09-22T21:28:48.589Z,7.352905
2022-09-22T21:32:13.974Z,7.352905
2022-09-22T21:35:39.315Z,7.373047
2022-09-22T21:39:04.683Z,7.423401
2022-09-22T21:42:30.035Z,7.393188
2022-09-22T21:45:55.443Z,7.342834
2022-09-22T21:49:20.706Z,7.322693
2022-09-22T21:52:46.104Z,7.272339
2022-09-22T21:56:11.451Z,7.232056
2022-09-22T21:59:36.835Z,7.272339
2022-09-22T22:03:02.132Z,7.272339
2022-09-22T22:06:27.484Z,7.28241
2022-09-22T22:09:52.821Z,7.302551
2022-09-22T22:13:18.162Z,7.28241
2022-09-22T22:16:43.483Z,7.242126
2022-09-22T22:20:08.811Z,7.232056
2022-09-22T22:23:34.125Z,7.171631
2022-09-22T22:26:59.448Z,7.211914
2022-09-22T22:30:24.791Z,7.211914
2022-09-22T22:33:50.158Z,7.232056
2022-09-22T22:37:15.428Z,7.131348
2022-09-22T22:40:40.828Z,7.101135
2022-09-22T22:44:06.258Z,7.121277
2022-09-22T22:47:31.482Z,7.091064
2022-09-22T22:50:56.851Z,7.020569
2022-09-22T22:54:22.198Z,7.060852
2022-09-22T22:57:47.607Z,7.060852
2022-09-22T23:01:13.024Z,7.050781
2022-09-22T23:04:38.254Z,7.091064
2022-09-22T23:08:03.616Z,7.131348
2022-09-22T23:11:28.933Z,7.101135
2022-09-22T23:14:54.289Z,7.151489
2022-09-22T23:18:20.964Z,7.121277
2022-09-22T23:21:45.049Z,7.091064
2022-09-22T23:25:10.362Z,7.03064
2022-09-22T23:28:35.739Z,6.980286
2022-09-22T23:32:01.051Z,6.90979
2022-09-22T23:35:26.425Z,6.889648
2022-09-22T23:38:51.842Z,6.839294
2022-09-22T23:42:17.196Z,6.839294
2022-09-22T23:45:42.593Z,6.839294
2022-09-22T23:49:07.984Z,6.879578
2022-09-22T23:52:33.309Z,6.879578
2022-09-22T23:55:58.648Z,6.90979
2022-09-22T23:59:24.080Z,6.869507
